Ana Sayfa
METAR-TAF:

METAR-TAF

Havaalanları :

Çanakkale Havalimanı

Çanakkale, Türkiye

Enlem: 40-08N, Boylam: 026-24E, yükseklik: 3 m

Güncel hava durumu gözlemi

Rapor saat 15:50 UTC de 31 dakika önce yapıldı.
Rüzgar kuzeydoğudan 14 kt
Sıcaklık 25°C
Nem 57%
Basınç 1015 hPa
Görüş mesafesi 10 km veya daha fazla
1500 m altında bulut yok ve kümülonimbus yok

METAR: LTBH 231550Z 05014KT CAVOK 25/16 Q1015

Saat: 19:21 (16:21 UTC)

Tahmin

Rapor saat 13:40 UTC de 2 saat ve 41 dakika önce yapıldı.
Ayın 23'si saat 15 UTC'den ayın 23'si saat 24 UTC'ye kadar geçerli Tahmin
Rüzgar kuzeydoğudan 12 kt
Görüş mesafesi 10 km veya daha fazla
3500 ft yükseklikte parçalı bulutlu
10000 ft yükseklikte parçalı bulutlu

TAF: LTBH 231340Z 2315/2324 05012KT 9999 SCT035 SCT100

4.000'den fazla havaalanı için hava durumu gözlemleri ve tahminleri (METAR ve TAF raporları).

Kullanılabilir istasyonlar harita üzerinde sarı ve kırmızı noktalarla gösterilir.

İstasyonun adını görmek için fareyi noktanın üzerinde gezdirin.

Sonrasında hava gözlem ve tahminlerini görmek için tıklayın.

Haritayı değiştirmek için: yaklaştırmak için siyah artı işaretli yeşil düğmeye ve uzaklaştırmak için de eksi işaretli düğmeye hızla tıklayın; bitişik haritalar için yeşil okları kullanın.


METAR-TAF: